sensor_id;sensor_type;location;lat;lon;timestamp;P1;durP1;ratioP1;P2;durP2;ratioP2
60203;SDS011;46068;52.132;4.618;2023-04-03T09:18:04;2.63;;;1.00;;
60203;SDS011;46068;52.132;4.618;2023-04-03T09:20:35;4.87;;;1.17;;
60203;SDS011;46068;52.132;4.618;2023-04-03T09:23:04;2.90;;;1.00;;
60203;SDS011;46068;52.132;4.618;2023-04-03T09:25:36;3.43;;;1.07;;
60203;SDS011;46068;52.132;4.618;2023-04-03T09:28:03;5.33;;;1.07;;
60203;SDS011;46068;52.132;4.618;2023-04-03T09:30:34;8.57;;;1.10;;
60203;SDS011;46068;52.132;4.618;2023-04-03T09:33:01;4.13;;;1.00;;
60203;SDS011;46068;52.132;4.618;2023-04-03T09:35:30;3.50;;;1.00;;
60203;SDS011;46068;52.132;4.618;2023-04-03T09:37:58;5.63;;;1.10;;
60203;SDS011;46068;52.132;4.618;2023-04-03T09:40:29;2.85;;;0.98;;
60203;SDS011;46068;52.132;4.618;2023-04-03T09:42:56;2.55;;;0.90;;
60203;SDS011;46068;52.132;4.618;2023-04-03T09:45:24;2.28;;;0.75;;
60203;SDS011;46068;52.132;4.618;2023-04-03T09:47:56;1.80;;;0.80;;
60203;SDS011;46068;52.132;4.618;2023-04-03T09:50:31;2.38;;;0.70;;
60203;SDS011;46068;52.132;4.618;2023-04-03T09:52:57;3.83;;;0.88;;
60203;SDS011;46068;52.132;4.618;2023-04-03T09:55:24;2.65;;;0.82;;
60203;SDS011;46068;52.132;4.618;2023-04-03T09:57:54;2.40;;;0.88;;
60203;SDS011;46068;52.132;4.618;2023-04-03T10:00:21;3.03;;;0.95;;
60203;SDS011;46068;52.132;4.618;2023-04-03T10:02:50;3.65;;;1.00;;
60203;SDS011;46068;52.132;4.618;2023-04-03T10:05:27;4.22;;;0.90;;
60203;SDS011;46068;52.132;4.618;2023-04-03T10:08:08;1.60;;;0.75;;
60203;SDS011;46068;52.132;4.618;2023-04-03T10:10:35;1.90;;;0.80;;
60203;SDS011;46068;52.132;4.618;2023-04-03T10:13:06;2.50;;;0.77;;
60203;SDS011;46068;52.132;4.618;2023-04-03T10:15:34;5.90;;;1.00;;
60203;SDS011;46068;52.132;4.618;2023-04-03T10:18:02;3.42;;;0.77;;
60203;SDS011;46068;52.132;4.618;2023-04-03T10:20:34;1.38;;;0.70;;
60203;SDS011;46068;52.132;4.618;2023-04-03T10:23:14;1.88;;;0.80;;
60203;SDS011;46068;52.132;4.618;2023-04-03T10:25:43;3.65;;;0.90;;
60203;SDS011;46068;52.132;4.618;2023-04-03T10:28:12;3.42;;;0.80;;
60203;SDS011;46068;52.132;4.618;2023-04-03T10:30:42;5.68;;;0.88;;
60203;SDS011;46068;52.132;4.618;2023-04-03T10:33:19;2.20;;;0.70;;
60203;SDS011;46068;52.132;4.618;2023-04-03T10:35:48;1.58;;;0.60;;
60203;SDS011;46068;52.132;4.618;2023-04-03T10:38:19;2.78;;;1.00;;
60203;SDS011;46068;52.132;4.618;2023-04-03T10:40:47;3.15;;;0.70;;
60203;SDS011;46068;52.132;4.618;2023-04-03T10:43:18;1.40;;;0.60;;
60203;SDS011;46068;52.132;4.618;2023-04-03T11:15:02;2.33;;;0.50;;
60203;SDS011;46068;52.132;4.618;2023-04-03T11:17:30;2.13;;;0.60;;
60203;SDS011;46068;52.132;4.618;2023-04-03T11:20:00;1.10;;;0.50;;
60203;SDS011;46068;52.132;4.618;2023-04-03T11:22:28;3.23;;;0.50;;
60203;SDS011;46068;52.132;4.618;2023-04-03T11:24:57;1.77;;;0.40;;
60203;SDS011;46068;52.132;4.618;2023-04-03T11:27:25;1.55;;;0.40;;
60203;SDS011;46068;52.132;4.618;2023-04-03T11:29:55;1.40;;;0.47;;
60203;SDS011;46068;52.132;4.618;2023-04-03T12:26:05;0.73;;;0.33;;
60203;SDS011;46068;52.132;4.618;2023-04-03T12:28:38;2.13;;;0.50;;
60203;SDS011;46068;52.132;4.618;2023-04-03T12:31:05;1.23;;;0.50;;
60203;SDS011;46068;52.132;4.618;2023-04-03T12:33:37;1.07;;;0.40;;
60203;SDS011;46068;52.132;4.618;2023-04-03T12:36:06;1.67;;;0.40;;
60203;SDS011;46068;52.132;4.618;2023-04-03T12:38:53;5.47;;;0.53;;
60203;SDS011;46068;52.132;4.618;2023-04-03T12:41:28;0.47;;;0.33;;
60203;SDS011;46068;52.132;4.618;2023-04-03T12:44:00;2.53;;;0.57;;
60203;SDS011;46068;52.132;4.618;2023-04-03T12:46:28;1.60;;;0.40;;
60203;SDS011;46068;52.132;4.618;2023-04-03T12:48:59;1.03;;;0.30;;
60203;SDS011;46068;52.132;4.618;2023-04-03T12:51:27;1.73;;;0.40;;
60203;SDS011;46068;52.132;4.618;2023-04-03T12:53:56;2.23;;;0.63;;
60203;SDS011;46068;52.132;4.618;2023-04-03T12:56:24;1.13;;;0.60;;
60203;SDS011;46068;52.132;4.618;2023-04-03T12:58:53;1.03;;;0.43;;
60203;SDS011;46068;52.132;4.618;2023-04-03T13:01:20;2.13;;;0.60;;
60203;SDS011;46068;52.132;4.618;2023-04-03T13:03:48;2.40;;;0.43;;
60203;SDS011;46068;52.132;4.618;2023-04-03T13:06:17;2.50;;;0.60;;
60203;SDS011;46068;52.132;4.618;2023-04-03T13:08:48;2.90;;;0.97;;
60203;SDS011;46068;52.132;4.618;2023-04-03T13:11:14;3.00;;;0.60;;
60203;SDS011;46068;52.132;4.618;2023-04-03T13:13:45;1.93;;;0.63;;
60203;SDS011;46068;52.132;4.618;2023-04-03T13:16:21;2.00;;;0.90;;
60203;SDS011;46068;52.132;4.618;2023-04-03T13:18:49;2.05;;;0.73;;
60203;SDS011;46068;52.132;4.618;2023-04-03T13:21:17;1.63;;;0.55;;
60203;SDS011;46068;52.132;4.618;2023-04-03T13:23:44;0.90;;;0.40;;
60203;SDS011;46068;52.132;4.618;2023-04-03T13:26:11;1.75;;;0.73;;
60203;SDS011;46068;52.132;4.618;2023-04-03T13:28:38;3.08;;;0.65;;
60203;SDS011;46068;52.132;4.618;2023-04-03T13:31:07;3.80;;;0.93;;
60203;SDS011;46068;52.132;4.618;2023-04-03T13:33:36;1.98;;;0.60;;
60203;SDS011;46068;52.132;4.618;2023-04-03T13:36:04;2.05;;;0.80;;
60203;SDS011;46068;52.132;4.618;2023-04-03T13:38:31;1.83;;;0.50;;
60203;SDS011;46068;52.132;4.618;2023-04-03T13:40:59;4.32;;;0.73;;
60203;SDS011;46068;52.132;4.618;2023-04-03T13:43:28;2.80;;;0.40;;
60203;SDS011;46068;52.132;4.618;2023-04-03T13:45:56;3.08;;;0.77;;
60203;SDS011;46068;52.132;4.618;2023-04-03T13:48:23;5.88;;;0.95;;
60203;SDS011;46068;52.132;4.618;2023-04-03T13:50:54;3.00;;;0.88;;
60203;SDS011;46068;52.132;4.618;2023-04-03T13:53:22;2.88;;;0.90;;
60203;SDS011;46068;52.132;4.618;2023-04-03T13:55:54;3.45;;;0.80;;
60203;SDS011;46068;52.132;4.618;2023-04-03T13:58:23;1.92;;;0.68;;
60203;SDS011;46068;52.132;4.618;2023-04-03T14:00:52;1.05;;;0.60;;
60203;SDS011;46068;52.132;4.618;2023-04-03T14:03:19;4.47;;;0.73;;
60203;SDS011;46068;52.132;4.618;2023-04-03T14:05:46;2.67;;;0.75;;
60203;SDS011;46068;52.132;4.618;2023-04-03T14:08:14;1.65;;;0.60;;
60203;SDS011;46068;52.132;4.618;2023-04-03T14:10:41;2.00;;;0.70;;
60203;SDS011;46068;52.132;4.618;2023-04-03T14:13:09;5.80;;;0.90;;
60203;SDS011;46068;52.132;4.618;2023-04-03T14:15:35;1.77;;;0.70;;
60203;SDS011;46068;52.132;4.618;2023-04-03T14:18:01;2.10;;;0.70;;
60203;SDS011;46068;52.132;4.618;2023-04-03T14:20:28;2.23;;;0.70;;
60203;SDS011;46068;52.132;4.618;2023-04-03T14:22:54;1.87;;;0.73;;
60203;SDS011;46068;52.132;4.618;2023-04-03T14:25:22;3.03;;;0.93;;
60203;SDS011;46068;52.132;4.618;2023-04-03T14:27:49;2.00;;;0.60;;
60203;SDS011;46068;52.132;4.618;2023-04-03T14:30:16;3.77;;;1.00;;
60203;SDS011;46068;52.132;4.618;2023-04-03T14:32:44;3.13;;;0.70;;
60203;SDS011;46068;52.132;4.618;2023-04-03T14:35:11;3.03;;;1.20;;
60203;SDS011;46068;52.132;4.618;2023-04-03T14:37:38;1.73;;;0.80;;
60203;SDS011;46068;52.132;4.618;2023-04-03T14:40:05;2.07;;;0.67;;
60203;SDS011;46068;52.132;4.618;2023-04-03T14:42:34;1.33;;;0.70;;
60203;SDS011;46068;52.132;4.618;2023-04-03T14:45:02;1.40;;;0.47;;
60203;SDS011;46068;52.132;4.618;2023-04-03T14:47:29;2.87;;;0.90;;
60203;SDS011;46068;52.132;4.618;2023-04-03T14:49:56;3.07;;;0.60;;
60203;SDS011;46068;52.132;4.618;2023-04-03T14:52:23;4.03;;;0.87;;
60203;SDS011;46068;52.132;4.618;2023-04-03T14:54:50;1.63;;;0.80;;
60203;SDS011;46068;52.132;4.618;2023-04-03T14:57:16;1.43;;;0.80;;
60203;SDS011;46068;52.132;4.618;2023-04-03T14:59:44;0.97;;;0.60;;
60203;SDS011;46068;52.132;4.618;2023-04-03T15:02:20;3.47;;;0.90;;
60203;SDS011;46068;52.132;4.618;2023-04-03T15:04:49;1.97;;;0.70;;
60203;SDS011;46068;52.132;4.618;2023-04-03T15:07:16;2.97;;;0.80;;
60203;SDS011;46068;52.132;4.618;2023-04-03T15:09:42;3.67;;;0.90;;
60203;SDS011;46068;52.132;4.618;2023-04-03T15:12:08;3.90;;;0.80;;
60203;SDS011;46068;52.132;4.618;2023-04-03T15:14:35;3.17;;;0.60;;
60203;SDS011;46068;52.132;4.618;2023-04-03T15:17:02;2.90;;;0.90;;
60203;SDS011;46068;52.132;4.618;2023-04-03T15:19:29;1.80;;;0.70;;
60203;SDS011;46068;52.132;4.618;2023-04-03T15:21:56;2.13;;;1.10;;
60203;SDS011;46068;52.132;4.618;2023-04-03T15:24:22;3.13;;;0.90;;
60203;SDS011;46068;52.132;4.618;2023-04-03T15:26:48;3.20;;;0.87;;
60203;SDS011;46068;52.132;4.618;2023-04-03T15:29:15;2.87;;;0.90;;
60203;SDS011;46068;52.132;4.618;2023-04-03T15:31:41;3.33;;;1.17;;
60203;SDS011;46068;52.132;4.618;2023-04-03T15:34:08;3.20;;;0.77;;
60203;SDS011;46068;52.132;4.618;2023-04-03T15:36:35;2.87;;;0.87;;
60203;SDS011;46068;52.132;4.618;2023-04-03T15:39:01;2.67;;;0.70;;
60203;SDS011;46068;52.132;4.618;2023-04-03T15:41:27;2.60;;;0.90;;
60203;SDS011;46068;52.132;4.618;2023-04-03T15:43:54;2.47;;;0.80;;
60203;SDS011;46068;52.132;4.618;2023-04-03T15:46:20;4.03;;;0.97;;
60203;SDS011;46068;52.132;4.618;2023-04-03T15:48:46;3.20;;;0.80;;
60203;SDS011;46068;52.132;4.618;2023-04-03T15:51:15;1.70;;;0.77;;
60203;SDS011;46068;52.132;4.618;2023-04-03T15:53:42;3.23;;;1.00;;
60203;SDS011;46068;52.132;4.618;2023-04-03T15:56:08;3.20;;;1.00;;
60203;SDS011;46068;52.132;4.618;2023-04-03T15:58:34;4.53;;;0.83;;
60203;SDS011;46068;52.132;4.618;2023-04-03T16:01:01;5.00;;;1.23;;
60203;SDS011;46068;52.132;4.618;2023-04-03T16:03:27;3.10;;;0.87;;
60203;SDS011;46068;52.132;4.618;2023-04-03T16:05:54;1.63;;;0.77;;
60203;SDS011;46068;52.132;4.618;2023-04-03T16:08:22;2.60;;;1.10;;
60203;SDS011;46068;52.132;4.618;2023-04-03T16:10:48;4.03;;;0.80;;
60203;SDS011;46068;52.132;4.618;2023-04-03T16:13:14;5.73;;;1.00;;
60203;SDS011;46068;52.132;4.618;2023-04-03T16:15:41;2.53;;;1.00;;
60203;SDS011;46068;52.132;4.618;2023-04-03T16:18:07;4.60;;;1.20;;
60203;SDS011;46068;52.132;4.618;2023-04-03T16:20:34;2.90;;;1.13;;
60203;SDS011;46068;52.132;4.618;2023-04-03T16:23:00;1.80;;;0.80;;
60203;SDS011;46068;52.132;4.618;2023-04-03T16:25:28;3.27;;;0.97;;
60203;SDS011;46068;52.132;4.618;2023-04-03T16:27:55;3.17;;;1.20;;
60203;SDS011;46068;52.132;4.618;2023-04-03T16:30:22;3.47;;;1.00;;
60203;SDS011;46068;52.132;4.618;2023-04-03T16:32:48;6.80;;;1.13;;
60203;SDS011;46068;52.132;4.618;2023-04-03T16:35:15;2.97;;;1.10;;
60203;SDS011;46068;52.132;4.618;2023-04-03T16:37:41;1.97;;;0.90;;
60203;SDS011;46068;52.132;4.618;2023-04-03T16:40:08;3.80;;;1.00;;
60203;SDS011;46068;52.132;4.618;2023-04-03T16:42:36;5.93;;;1.10;;
60203;SDS011;46068;52.132;4.618;2023-04-03T16:45:02;3.60;;;0.90;;
60203;SDS011;46068;52.132;4.618;2023-04-03T16:47:29;3.10;;;1.10;;
60203;SDS011;46068;52.132;4.618;2023-04-03T16:49:55;4.50;;;1.10;;
60203;SDS011;46068;52.132;4.618;2023-04-03T16:52:22;3.60;;;1.00;;
60203;SDS011;46068;52.132;4.618;2023-04-03T16:54:48;4.17;;;1.10;;
60203;SDS011;46068;52.132;4.618;2023-04-03T16:57:14;2.60;;;0.87;;
60203;SDS011;46068;52.132;4.618;2023-04-03T16:59:42;2.50;;;1.23;;
60203;SDS011;46068;52.132;4.618;2023-04-03T17:02:08;4.83;;;1.20;;
60203;SDS011;46068;52.132;4.618;2023-04-03T17:04:34;2.50;;;0.90;;
60203;SDS011;46068;52.132;4.618;2023-04-03T17:07:01;2.47;;;0.80;;
60203;SDS011;46068;52.132;4.618;2023-04-03T17:09:30;3.73;;;0.93;;
60203;SDS011;46068;52.132;4.618;2023-04-03T17:11:57;5.70;;;1.03;;
60203;SDS011;46068;52.132;4.618;2023-04-03T17:14:23;4.13;;;0.90;;
60203;SDS011;46068;52.132;4.618;2023-04-03T17:16:51;3.13;;;0.90;;
60203;SDS011;46068;52.132;4.618;2023-04-03T17:19:17;2.40;;;0.63;;
60203;SDS011;46068;52.132;4.618;2023-04-03T17:21:43;2.80;;;1.00;;
60203;SDS011;46068;52.132;4.618;2023-04-03T17:24:11;3.73;;;1.10;;
60203;SDS011;46068;52.132;4.618;2023-04-03T17:26:38;3.50;;;1.00;;
60203;SDS011;46068;52.132;4.618;2023-04-03T17:29:05;2.77;;;0.90;;
60203;SDS011;46068;52.132;4.618;2023-04-03T17:31:31;4.80;;;1.17;;
60203;SDS011;46068;52.132;4.618;2023-04-03T17:33:59;2.90;;;1.10;;
60203;SDS011;46068;52.132;4.618;2023-04-03T17:36:26;2.57;;;1.10;;
60203;SDS011;46068;52.132;4.618;2023-04-03T17:38:53;3.77;;;1.10;;
60203;SDS011;46068;52.132;4.618;2023-04-03T17:41:20;3.37;;;0.90;;
60203;SDS011;46068;52.132;4.618;2023-04-03T17:43:46;4.90;;;1.00;;
60203;SDS011;46068;52.132;4.618;2023-04-03T17:46:12;5.13;;;1.40;;
60203;SDS011;46068;52.132;4.618;2023-04-03T17:48:40;5.47;;;1.20;;
60203;SDS011;46068;52.132;4.618;2023-04-03T17:51:09;3.33;;;1.00;;
60203;SDS011;46068;52.132;4.618;2023-04-03T17:53:35;4.47;;;1.23;;
60203;SDS011;46068;52.132;4.618;2023-04-03T17:56:05;3.43;;;1.10;;
60203;SDS011;46068;52.132;4.618;2023-04-03T17:58:32;4.23;;;1.10;;
60203;SDS011;46068;52.132;4.618;2023-04-03T18:00:58;4.50;;;1.43;;
60203;SDS011;46068;52.132;4.618;2023-04-03T18:03:24;5.63;;;1.10;;
60203;SDS011;46068;52.132;4.618;2023-04-03T18:05:51;5.20;;;0.80;;
60203;SDS011;46068;52.132;4.618;2023-04-03T18:08:18;5.13;;;1.40;;
60203;SDS011;46068;52.132;4.618;2023-04-03T18:10:45;6.23;;;1.17;;
60203;SDS011;46068;52.132;4.618;2023-04-03T18:13:11;3.53;;;1.00;;
60203;SDS011;46068;52.132;4.618;2023-04-03T18:15:37;5.13;;;1.30;;
60203;SDS011;46068;52.132;4.618;2023-04-03T18:18:09;2.63;;;1.30;;
60203;SDS011;46068;52.132;4.618;2023-04-03T18:20:36;5.23;;;1.20;;
60203;SDS011;46068;52.132;4.618;2023-04-03T18:23:02;3.43;;;1.20;;
60203;SDS011;46068;52.132;4.618;2023-04-03T18:25:30;2.83;;;1.00;;
60203;SDS011;46068;52.132;4.618;2023-04-03T18:27:56;3.30;;;0.83;;
60203;SDS011;46068;52.132;4.618;2023-04-03T18:30:24;4.87;;;1.50;;
60203;SDS011;46068;52.132;4.618;2023-04-03T18:32:50;2.33;;;1.00;;
60203;SDS011;46068;52.132;4.618;2023-04-03T18:35:17;4.03;;;1.03;;
60203;SDS011;46068;52.132;4.618;2023-04-03T18:37:43;2.97;;;1.20;;
60203;SDS011;46068;52.132;4.618;2023-04-03T18:40:10;5.97;;;1.43;;
60203;SDS011;46068;52.132;4.618;2023-04-03T18:42:37;5.47;;;1.17;;
60203;SDS011;46068;52.132;4.618;2023-04-03T18:45:05;5.37;;;1.13;;
60203;SDS011;46068;52.132;4.618;2023-04-03T18:47:32;3.83;;;1.23;;
60203;SDS011;46068;52.132;4.618;2023-04-03T18:50:00;3.57;;;1.07;;
60203;SDS011;46068;52.132;4.618;2023-04-03T18:52:27;4.67;;;1.10;;
60203;SDS011;46068;52.132;4.618;2023-04-03T18:54:53;1.67;;;1.00;;
60203;SDS011;46068;52.132;4.618;2023-04-03T18:57:20;2.63;;;1.03;;
60203;SDS011;46068;52.132;4.618;2023-04-03T18:59:48;5.33;;;1.43;;
60203;SDS011;46068;52.132;4.618;2023-04-03T19:02:14;4.67;;;1.80;;
60203;SDS011;46068;52.132;4.618;2023-04-03T19:04:42;5.10;;;1.13;;
60203;SDS011;46068;52.132;4.618;2023-04-03T19:07:09;4.00;;;1.10;;
60203;SDS011;46068;52.132;4.618;2023-04-03T19:09:35;3.53;;;1.27;;
60203;SDS011;46068;52.132;4.618;2023-04-03T19:12:02;3.43;;;1.30;;
60203;SDS011;46068;52.132;4.618;2023-04-03T19:14:29;5.07;;;1.40;;
60203;SDS011;46068;52.132;4.618;2023-04-03T19:16:57;3.67;;;1.10;;
60203;SDS011;46068;52.132;4.618;2023-04-03T19:19:23;3.57;;;1.30;;
60203;SDS011;46068;52.132;4.618;2023-04-03T19:21:50;3.63;;;1.23;;
60203;SDS011;46068;52.132;4.618;2023-04-03T19:24:16;7.73;;;1.80;;
60203;SDS011;46068;52.132;4.618;2023-04-03T19:26:42;3.20;;;1.10;;
60203;SDS011;46068;52.132;4.618;2023-04-03T19:29:09;3.37;;;1.20;;
60203;SDS011;46068;52.132;4.618;2023-04-03T19:31:35;6.47;;;1.30;;
60203;SDS011;46068;52.132;4.618;2023-04-03T19:34:03;3.57;;;1.13;;
60203;SDS011;46068;52.132;4.618;2023-04-03T19:36:30;6.37;;;1.23;;
60203;SDS011;46068;52.132;4.618;2023-04-03T19:38:57;5.63;;;1.50;;
60203;SDS011;46068;52.132;4.618;2023-04-03T19:41:24;4.57;;;1.30;;
60203;SDS011;46068;52.132;4.618;2023-04-03T19:43:52;3.90;;;1.00;;
60203;SDS011;46068;52.132;4.618;2023-04-03T19:46:20;4.60;;;1.13;;
60203;SDS011;46068;52.132;4.618;2023-04-03T19:48:47;2.67;;;1.30;;
60203;SDS011;46068;52.132;4.618;2023-04-03T19:51:14;6.50;;;1.20;;
60203;SDS011;46068;52.132;4.618;2023-04-03T19:53:41;2.93;;;1.20;;
60203;SDS011;46068;52.132;4.618;2023-04-03T19:56:07;3.47;;;1.23;;
60203;SDS011;46068;52.132;4.618;2023-04-03T19:58:33;3.30;;;1.10;;
60203;SDS011;46068;52.132;4.618;2023-04-03T20:01:00;2.57;;;0.97;;
60203;SDS011;46068;52.132;4.618;2023-04-03T20:03:26;5.80;;;1.47;;
60203;SDS011;46068;52.132;4.618;2023-04-03T20:05:53;3.07;;;1.27;;
60203;SDS011;46068;52.132;4.618;2023-04-03T20:08:22;2.87;;;1.20;;
60203;SDS011;46068;52.132;4.618;2023-04-03T20:10:50;4.47;;;1.60;;
60203;SDS011;46068;52.132;4.618;2023-04-03T20:13:16;5.13;;;1.20;;
60203;SDS011;46068;52.132;4.618;2023-04-03T20:15:43;4.87;;;1.27;;
60203;SDS011;46068;52.132;4.618;2023-04-03T20:18:10;5.20;;;1.50;;
60203;SDS011;46068;52.132;4.618;2023-04-03T20:20:41;5.37;;;1.70;;
60203;SDS011;46068;52.132;4.618;2023-04-03T20:23:08;8.67;;;1.50;;
60203;SDS011;46068;52.132;4.618;2023-04-03T20:25:39;3.93;;;1.50;;
60203;SDS011;46068;52.132;4.618;2023-04-03T20:28:06;3.00;;;1.10;;
60203;SDS011;46068;52.132;4.618;2023-04-03T20:30:33;4.90;;;1.40;;
60203;SDS011;46068;52.132;4.618;2023-04-03T20:32:59;7.37;;;1.77;;
60203;SDS011;46068;52.132;4.618;2023-04-03T20:35:25;3.53;;;1.10;;
60203;SDS011;46068;52.132;4.618;2023-04-03T20:37:51;5.17;;;1.77;;
60203;SDS011;46068;52.132;4.618;2023-04-03T20:40:18;5.17;;;1.23;;
60203;SDS011;46068;52.132;4.618;2023-04-03T20:42:45;5.40;;;1.20;;
60203;SDS011;46068;52.132;4.618;2023-04-03T20:45:12;5.83;;;1.87;;
60203;SDS011;46068;52.132;4.618;2023-04-03T20:47:38;6.07;;;1.50;;
60203;SDS011;46068;52.132;4.618;2023-04-03T20:50:05;7.00;;;1.60;;
60203;SDS011;46068;52.132;4.618;2023-04-03T20:52:31;4.60;;;1.20;;
60203;SDS011;46068;52.132;4.618;2023-04-03T20:54:57;5.00;;;1.30;;
60203;SDS011;46068;52.132;4.618;2023-04-03T20:57:24;5.03;;;1.23;;
60203;SDS011;46068;52.132;4.618;2023-04-03T20:59:51;5.10;;;1.37;;
60203;SDS011;46068;52.132;4.618;2023-04-03T21:02:18;7.63;;;1.47;;
60203;SDS011;46068;52.132;4.618;2023-04-03T21:04:47;5.53;;;1.60;;
60203;SDS011;46068;52.132;4.618;2023-04-03T21:20:48;5.53;;;1.30;;
60203;SDS011;46068;52.132;4.618;2023-04-03T21:23:14;4.03;;;1.40;;
60203;SDS011;46068;52.132;4.618;2023-04-03T21:25:41;4.33;;;1.67;;
60203;SDS011;46068;52.132;4.618;2023-04-03T21:28:07;2.97;;;1.70;;
60203;SDS011;46068;52.132;4.618;2023-04-03T21:30:34;3.03;;;1.40;;
60203;SDS011;46068;52.132;4.618;2023-04-03T21:33:00;5.07;;;1.67;;
60203;SDS011;46068;52.132;4.618;2023-04-03T21:35:27;5.10;;;1.80;;
60203;SDS011;46068;52.132;4.618;2023-04-03T21:37:54;5.23;;;1.80;;
60203;SDS011;46068;52.132;4.618;2023-04-03T21:40:21;5.40;;;2.03;;
60203;SDS011;46068;52.132;4.618;2023-04-03T21:42:51;4.83;;;1.70;;
60203;SDS011;46068;52.132;4.618;2023-04-03T21:45:18;3.00;;;1.73;;
60203;SDS011;46068;52.132;4.618;2023-04-03T21:47:44;6.40;;;1.57;;
60203;SDS011;46068;52.132;4.618;2023-04-03T21:50:10;4.93;;;1.80;;
60203;SDS011;46068;52.132;4.618;2023-04-03T21:52:38;4.47;;;1.70;;
60203;SDS011;46068;52.132;4.618;2023-04-03T21:55:05;2.27;;;1.40;;
60203;SDS011;46068;52.132;4.618;2023-04-03T21:57:32;4.83;;;1.80;;
60203;SDS011;46068;52.132;4.618;2023-04-03T21:59:59;4.53;;;1.50;;
60203;SDS011;46068;52.132;4.618;2023-04-03T22:02:26;7.53;;;1.67;;
60203;SDS011;46068;52.132;4.618;2023-04-03T22:04:53;4.47;;;1.60;;
60203;SDS011;46068;52.132;4.618;2023-04-03T22:07:20;2.67;;;1.17;;
60203;SDS011;46068;52.132;4.618;2023-04-03T22:09:48;4.47;;;1.50;;
60203;SDS011;46068;52.132;4.618;2023-04-03T22:12:14;4.90;;;1.53;;
60203;SDS011;46068;52.132;4.618;2023-04-03T22:14:41;6.37;;;1.67;;
60203;SDS011;46068;52.132;4.618;2023-04-03T22:17:07;3.77;;;1.40;;
60203;SDS011;46068;52.132;4.618;2023-04-03T22:19:34;3.73;;;1.50;;
60203;SDS011;46068;52.132;4.618;2023-04-03T22:22:00;5.10;;;1.60;;
60203;SDS011;46068;52.132;4.618;2023-04-03T22:24:27;4.40;;;1.60;;
60203;SDS011;46068;52.132;4.618;2023-04-03T22:26:55;4.57;;;1.70;;
60203;SDS011;46068;52.132;4.618;2023-04-03T22:29:21;4.83;;;1.80;;
60203;SDS011;46068;52.132;4.618;2023-04-03T22:31:47;4.30;;;1.63;;
60203;SDS011;46068;52.132;4.618;2023-04-03T22:34:14;4.77;;;1.47;;
60203;SDS011;46068;52.132;4.618;2023-04-03T22:36:41;5.30;;;1.70;;
60203;SDS011;46068;52.132;4.618;2023-04-03T22:39:07;6.13;;;1.73;;
60203;SDS011;46068;52.132;4.618;2023-04-03T22:41:36;5.07;;;1.50;;
60203;SDS011;46068;52.132;4.618;2023-04-03T22:44:03;4.93;;;1.90;;
60203;SDS011;46068;52.132;4.618;2023-04-03T22:46:30;4.80;;;1.83;;
60203;SDS011;46068;52.132;4.618;2023-04-03T22:48:56;7.30;;;1.80;;
60203;SDS011;46068;52.132;4.618;2023-04-03T22:51:23;4.77;;;1.70;;
60203;SDS011;46068;52.132;4.618;2023-04-03T22:53:49;3.93;;;1.60;;
60203;SDS011;46068;52.132;4.618;2023-04-03T22:56:15;4.33;;;1.50;;
60203;SDS011;46068;52.132;4.618;2023-04-03T22:58:42;3.77;;;1.30;;
60203;SDS011;46068;52.132;4.618;2023-04-03T23:01:10;6.00;;;1.70;;
60203;SDS011;46068;52.132;4.618;2023-04-03T23:03:38;4.40;;;1.50;;
60203;SDS011;46068;52.132;4.618;2023-04-03T23:06:04;5.03;;;1.60;;
60203;SDS011;46068;52.132;4.618;2023-04-03T23:08:32;2.53;;;1.57;;
60203;SDS011;46068;52.132;4.618;2023-04-03T23:10:58;5.47;;;1.80;;
60203;SDS011;46068;52.132;4.618;2023-04-03T23:13:25;5.37;;;1.40;;
60203;SDS011;46068;52.132;4.618;2023-04-03T23:15:52;2.70;;;1.27;;
60203;SDS011;46068;52.132;4.618;2023-04-03T23:18:19;5.03;;;1.60;;
60203;SDS011;46068;52.132;4.618;2023-04-03T23:20:46;4.03;;;1.20;;
60203;SDS011;46068;52.132;4.618;2023-04-03T23:23:15;7.30;;;1.93;;
60203;SDS011;46068;52.132;4.618;2023-04-03T23:25:42;3.23;;;1.40;;
60203;SDS011;46068;52.132;4.618;2023-04-03T23:28:08;4.63;;;1.70;;
60203;SDS011;46068;52.132;4.618;2023-04-03T23:30:34;4.53;;;1.67;;
60203;SDS011;46068;52.132;4.618;2023-04-03T23:33:01;4.23;;;1.70;;
60203;SDS011;46068;52.132;4.618;2023-04-03T23:35:28;3.53;;;1.60;;
60203;SDS011;46068;52.132;4.618;2023-04-03T23:37:55;3.33;;;1.53;;
60203;SDS011;46068;52.132;4.618;2023-04-03T23:40:21;4.07;;;1.60;;
60203;SDS011;46068;52.132;4.618;2023-04-03T23:42:48;5.70;;;1.90;;
60203;SDS011;46068;52.132;4.618;2023-04-03T23:45:14;4.53;;;1.87;;
60203;SDS011;46068;52.132;4.618;2023-04-03T23:47:41;3.23;;;1.53;;
60203;SDS011;46068;52.132;4.618;2023-04-03T23:50:07;3.87;;;1.73;;
60203;SDS011;46068;52.132;4.618;2023-04-03T23:52:35;6.03;;;1.83;;
60203;SDS011;46068;52.132;4.618;2023-04-03T23:55:02;5.33;;;1.73;;
60203;SDS011;46068;52.132;4.618;2023-04-03T23:57:28;2.57;;;1.50;;
60203;SDS011;46068;52.132;4.618;2023-04-03T23:59:54;3.43;;;1.80;;
